Terminal Aerodrome Forecast
Issued by NWS

Home | Current Version | Previous Version | Text Only | Print | Product List | Glossary On
Versions: 1 2 3 4 5 6 7 8 9 10 11 12 13 14 15 16 17 18 19 20 21
000
FTUS44 KSJT 251100
TAFSOA
TAF
KSOA 251125Z 2512/2612 17010KT P6SM VCTS OVC014CB
     FM251500 17010KT P6SM BKN020
     FM251700 20014G20KT P6SM SCT025 BKN250
     FM260000 23007KT P6SM SKC
     FM260800 17006KT P6SM BKN012=

USA.gov is the U.S. government's official web portal to all federal, state and local government web resources and services.